createdAt,value
2023-05-09T00:05:13.188Z,4.23
2023-05-09T00:10:35.759Z,4.17
2023-05-09T00:15:58.522Z,4.33
2023-05-09T00:21:20.651Z,4.20
2023-05-09T00:26:43.038Z,4.20
2023-05-09T00:32:05.912Z,3.93
2023-05-09T00:37:30.636Z,4.40
2023-05-09T00:42:53.367Z,3.97
2023-05-09T00:48:16.719Z,3.80
2023-05-09T00:53:40.042Z,4.60
2023-05-09T00:59:03.220Z,4.30
2023-05-09T01:04:25.986Z,3.97
2023-05-09T01:09:55.882Z,4.00
2023-05-09T01:15:34.387Z,4.20
2023-05-09T01:21:08.859Z,4.40
2023-05-09T01:27:02.167Z,4.10
2023-05-09T01:32:27.434Z,3.80
2023-05-09T01:37:51.616Z,4.00
2023-05-09T01:43:16.845Z,4.17
2023-05-09T01:48:41.230Z,3.70
2023-05-09T01:54:05.757Z,3.83
2023-05-09T01:59:29.568Z,4.00
2023-05-09T02:04:55.382Z,3.80
2023-05-09T02:10:20.836Z,4.20
2023-05-09T02:15:44.443Z,4.43
2023-05-09T02:21:06.929Z,3.80
2023-05-09T02:26:29.323Z,4.13
2023-05-09T02:31:53.159Z,4.03
2023-05-09T02:37:15.764Z,4.07
2023-05-09T02:42:38.197Z,4.10
2023-05-09T02:48:00.754Z,4.17
2023-05-09T02:53:23.275Z,4.23
2023-05-09T02:58:51.087Z,3.90
2023-05-09T03:04:13.748Z,3.70
2023-05-09T03:09:36.329Z,3.77
2023-05-09T03:14:58.499Z,3.80
2023-05-09T03:20:21.163Z,4.03
2023-05-09T03:25:43.467Z,3.70
2023-05-09T03:31:06.435Z,3.97
2023-05-09T03:36:29.429Z,3.60
2023-05-09T03:41:52.348Z,3.53
2023-05-09T03:47:14.862Z,3.70
2023-05-09T03:52:37.489Z,3.53
2023-05-09T03:58:01.311Z,4.33
2023-05-09T04:03:25.251Z,3.63
2023-05-09T04:08:49.897Z,3.60
2023-05-09T04:14:12.317Z,4.00
2023-05-09T04:19:34.527Z,3.67
2023-05-09T04:24:57.337Z,3.67
2023-05-09T04:30:21.036Z,4.13
2023-05-09T04:35:43.207Z,3.87
2023-05-09T04:41:05.572Z,3.90
2023-05-09T04:46:28.241Z,4.23
2023-05-09T04:51:53.745Z,3.93
2023-05-09T04:57:18.597Z,3.90
2023-05-09T05:02:46.926Z,3.80
2023-05-09T05:08:09.660Z,3.53
2023-05-09T05:13:34.755Z,3.50
2023-05-09T05:18:57.861Z,3.67
2023-05-09T05:24:21.012Z,4.10
2023-05-09T05:29:43.303Z,3.80
2023-05-09T05:35:06.940Z,3.80
2023-05-09T05:40:32.179Z,3.73
2023-05-09T05:45:57.954Z,4.20
2023-05-09T05:51:21.407Z,4.10
2023-05-09T05:56:43.697Z,4.13
2023-05-09T06:02:06.556Z,3.73
2023-05-09T06:07:29.983Z,3.57
2023-05-09T06:12:52.395Z,3.97
2023-05-09T06:18:15.074Z,3.63
2023-05-09T06:23:40.489Z,3.73
2023-05-09T06:29:07.826Z,3.33
2023-05-09T06:34:30.337Z,3.20
2023-05-09T06:39:52.442Z,3.70
2023-05-09T06:45:15.478Z,3.20
2023-05-09T06:50:40.084Z,3.80
2023-05-09T06:56:02.653Z,3.27
2023-05-09T07:01:25.149Z,3.20
2023-05-09T07:06:47.471Z,2.70
2023-05-09T07:12:09.783Z,3.00
2023-05-09T07:17:32.055Z,3.17
2023-05-09T07:22:54.882Z,2.77
2023-05-09T07:28:17.331Z,2.93
2023-05-09T07:33:39.944Z,2.80
2023-05-09T07:39:02.363Z,2.87
2023-05-09T07:44:24.758Z,3.30
2023-05-09T07:49:48.130Z,2.93
2023-05-09T07:55:12.433Z,3.00
2023-05-09T08:00:34.949Z,2.90
2023-05-09T08:05:57.516Z,2.23
2023-05-09T08:11:20.157Z,2.80
2023-05-09T08:16:43.436Z,2.50
2023-05-09T08:22:06.093Z,2.90
2023-05-09T08:27:28.549Z,3.17
2023-05-09T08:32:51.464Z,2.50
2023-05-09T08:38:14.023Z,2.80
2023-05-09T08:43:38.320Z,2.93
2023-05-09T08:49:00.998Z,2.10
2023-05-09T08:54:24.621Z,2.50
2023-05-09T08:59:49.266Z,2.37
2023-05-09T09:05:19.923Z,1.83
2023-05-09T09:10:52.033Z,1.90
2023-05-09T09:16:22.973Z,2.40
2023-05-09T09:21:51.148Z,2.53
2023-05-09T09:27:13.932Z,2.15
2023-05-09T09:32:37.727Z,2.38
2023-05-09T09:38:00.324Z,2.50
2023-05-09T09:43:32.155Z,3.25
2023-05-09T09:48:57.689Z,2.50
2023-05-09T09:54:20.216Z,2.58
2023-05-09T09:59:58.583Z,2.53
2023-05-09T10:05:31.306Z,2.35
2023-05-09T10:10:53.779Z,3.10
2023-05-09T10:16:16.215Z,2.80
2023-05-09T10:21:40.858Z,2.50
2023-05-09T10:27:06.357Z,2.17
2023-05-09T10:32:38.310Z,2.58
2023-05-09T10:38:02.324Z,2.63
2023-05-09T10:43:25.381Z,2.67
2023-05-09T10:48:48.923Z,2.30
2023-05-09T10:54:18.575Z,2.42
2023-05-09T10:59:42.940Z,2.60
2023-05-09T11:05:19.305Z,2.40
2023-05-09T11:10:42.936Z,2.80
2023-05-09T11:16:08.959Z,2.47
2023-05-09T11:21:31.244Z,2.30
2023-05-09T11:26:54.088Z,2.85
2023-05-09T11:32:16.728Z,2.35
2023-05-09T11:38:04.051Z,2.17
2023-05-09T11:43:26.692Z,2.67
2023-05-09T11:48:49.428Z,2.30
2023-05-09T11:54:13.692Z,2.25
2023-05-09T11:59:36.967Z,2.50
2023-05-09T12:05:13.831Z,3.25
2023-05-09T12:10:40.345Z,2.22
2023-05-09T12:16:03.014Z,2.60
2023-05-09T12:21:25.603Z,2.53
2023-05-09T12:26:49.321Z,2.10
2023-05-09T12:32:12.557Z,2.50
2023-05-09T12:37:34.837Z,2.38
2023-05-09T12:43:01.027Z,2.35
2023-05-09T12:48:26.551Z,2.50
2023-05-09T12:53:49.296Z,2.15
2023-05-09T12:59:14.921Z,2.17
2023-05-09T13:04:37.431Z,2.10
2023-05-09T13:10:01.057Z,2.38
2023-05-09T13:15:23.580Z,2.35
2023-05-09T13:20:46.368Z,2.25
2023-05-09T13:26:10.543Z,2.33
2023-05-09T13:31:33.197Z,2.28
2023-05-09T13:36:55.759Z,1.90
2023-05-09T13:42:19.194Z,2.10
2023-05-09T13:47:41.548Z,2.08
2023-05-09T13:53:04.085Z,1.92
2023-05-09T13:58:26.314Z,2.20
2023-05-09T14:03:49.342Z,2.42
2023-05-09T14:09:12.867Z,2.03
2023-05-09T14:14:35.421Z,2.40
2023-05-09T14:19:57.799Z,2.35
2023-05-09T14:25:20.373Z,2.25
2023-05-09T14:30:42.688Z,2.03
2023-05-09T14:36:06.192Z,1.73
2023-05-09T14:41:28.725Z,1.85
2023-05-09T14:46:51.349Z,2.20
2023-05-09T14:52:13.875Z,2.05
2023-05-09T14:57:36.464Z,2.08
2023-05-09T15:02:58.848Z,2.65
2023-05-09T15:08:21.232Z,2.05
2023-05-09T15:13:43.731Z,1.92
2023-05-09T15:19:06.048Z,1.83
2023-05-09T15:24:28.341Z,2.03
2023-05-09T15:29:50.527Z,1.90
2023-05-09T15:35:14.063Z,1.52
2023-05-09T15:40:36.751Z,2.00
2023-05-09T15:45:59.195Z,2.15
2023-05-09T15:51:21.870Z,2.42
2023-05-09T15:56:44.861Z,1.88
2023-05-09T16:02:07.135Z,1.73
2023-05-09T16:07:31.097Z,2.05
2023-05-09T16:12:54.071Z,2.05
2023-05-09T16:18:16.344Z,2.08
2023-05-09T16:23:41.937Z,2.00
2023-05-09T16:29:04.192Z,2.35
2023-05-09T16:34:26.718Z,2.20
2023-05-09T16:39:49.913Z,2.20
2023-05-09T16:45:12.318Z,2.10
2023-05-09T16:50:34.714Z,2.08
2023-05-09T16:55:57.293Z,2.28
2023-05-09T17:01:19.612Z,2.10
2023-05-09T17:06:42.283Z,1.95
2023-05-09T17:12:05.217Z,2.28
2023-05-09T17:17:27.583Z,2.13
2023-05-09T17:22:50.151Z,2.30
2023-05-09T17:28:12.666Z,2.22
2023-05-09T17:33:35.685Z,2.05
2023-05-09T17:38:58.126Z,2.45
2023-05-09T17:44:21.112Z,2.45
2023-05-09T17:49:44.456Z,2.53
2023-05-09T17:55:08.512Z,2.38
2023-05-09T18:00:31.203Z,2.55
2023-05-09T18:05:53.472Z,2.70
2023-05-09T18:11:16.392Z,2.35
2023-05-09T18:16:38.996Z,3.40
2023-05-09T18:22:02.248Z,3.00
2023-05-09T18:27:25.561Z,2.47
2023-05-09T18:32:48.110Z,2.20
2023-05-09T18:38:10.371Z,2.03
2023-05-09T18:43:32.961Z,2.47
2023-05-09T18:48:55.556Z,2.10
2023-05-09T18:54:18.134Z,2.42
2023-05-09T18:59:40.834Z,2.00
2023-05-09T19:05:07.432Z,2.53
2023-05-09T19:10:30.183Z,2.45
2023-05-09T19:15:52.477Z,2.40
2023-05-09T19:21:16.086Z,2.20
2023-05-09T19:26:38.726Z,2.87
2023-05-09T19:32:01.670Z,2.25
2023-05-09T19:37:24.260Z,2.30
2023-05-09T19:42:48.442Z,2.30
2023-05-09T19:48:15.322Z,2.60
2023-05-09T19:53:38.764Z,2.47
2023-05-09T19:59:01.137Z,2.73
2023-05-09T20:04:24.257Z,2.60
2023-05-09T20:09:46.765Z,2.57
2023-05-09T20:15:09.381Z,2.90
2023-05-09T20:20:32.442Z,2.70
2023-05-09T20:25:55.358Z,2.30
2023-05-09T20:31:17.450Z,2.50
2023-05-09T20:36:39.732Z,2.50
2023-05-09T20:42:02.510Z,2.87
2023-05-09T20:47:25.254Z,3.17
2023-05-09T20:52:47.762Z,2.60
2023-05-09T20:58:10.243Z,3.10
2023-05-09T21:03:32.786Z,2.53
2023-05-09T21:08:55.370Z,3.10
2023-05-09T21:14:17.776Z,3.17
2023-05-09T21:19:40.119Z,3.43
2023-05-09T21:25:02.489Z,3.17
2023-05-09T21:30:24.736Z,3.23
2023-05-09T21:35:47.434Z,3.47
2023-05-09T21:41:10.256Z,3.63
2023-05-09T21:46:35.365Z,3.57
2023-05-09T21:51:57.948Z,3.83
2023-05-09T21:57:19.979Z,3.50
2023-05-09T22:02:45.737Z,3.70
2023-05-09T22:08:08.280Z,3.40
2023-05-09T22:13:30.775Z,3.90
2023-05-09T22:18:53.785Z,4.10
2023-05-09T22:24:15.875Z,4.03
2023-05-09T22:29:37.966Z,4.00
2023-05-09T22:35:00.421Z,4.07
2023-05-09T22:40:22.606Z,4.47
2023-05-09T22:45:45.053Z,4.23
2023-05-09T22:51:08.366Z,4.03
2023-05-09T22:56:30.862Z,4.37
2023-05-09T23:01:53.630Z,4.40
2023-05-09T23:07:16.006Z,4.07
2023-05-09T23:12:38.358Z,4.53
2023-05-09T23:18:00.466Z,4.60
2023-05-09T23:23:22.993Z,4.63
2023-05-09T23:28:45.508Z,4.70
2023-05-09T23:34:08.021Z,4.60
2023-05-09T23:39:31.256Z,4.60
2023-05-09T23:44:53.877Z,4.70
2023-05-09T23:50:16.956Z,5.00
2023-05-09T23:55:39.643Z,4.97
